Terminal Aerodrome Forecast
Issued by NWS Lake Charles, LA

Home | Current Version | Previous Version | Text Only | Print | Product List | Glossary On
Versions: 1 2 3 4 5 6 7 8 9 10 11 12 13 14 15 16 17 18
000
FTUS44 KLCH 280800 AAA
TAFLCH
TAF AMD
KLCH 280812Z 2808/2906 07004KT P6SM SCT035 SCT120
     FM281600 13012KT P6SM VCTS SCT030CB SCT050
      TEMPO 2816/2820 VRB15G25KT 3SM -TSRA BKN030CB OVC050
     FM282300 11004KT P6SM SCT120 SCT250=

USA.gov is the U.S. government's official web portal to all federal, state and local government web resources and services.